Aviation Digital Data Service (ADDS)

Output produced by TAFs form (0557 UTC 18 January 2018)
found at http://www.aviationweather.gov/adds/tafs/
 
METAR text: EGLL 180550Z AUTO 28027G40KT 9999 SCT042 BKN049 10/02 Q0995 NOSIG
Conditions at: EGLL (LONDON/HEATHROW , GB) observed 0550 UTC 18 January 2018
Temperature: 10.0°C (50°F)
Dewpoint: 2.0°C (36°F) [RH = 57%]
Pressure (altimeter): 29.38 inches Hg (995.0 mb)
Winds: from the W (280 degrees) at 31 MPH (27 knots; 14.0 m/s)
gusting to 46 MPH (40 knots; 20.8 m/s)
Visibility: 6 or more miles (10+ km)
Ceiling: 4900 feet AGL
Clouds: scattered clouds at 4200 feet AGL
broken clouds at 4900 feet AGL
Weather: no significant weather observed at this time

Forecast for: EGLL (LONDON/HEATHROW , GB)
Text: TAF EGLL 180512Z 1806/1912 26025G40KT 9999 SCT035
Forecast period: 0600 to 0800 UTC 18 January 2018
Forecast type: FROM: standard forecast or significant change
Winds: from the W (260 degrees) at 29 MPH (25 knots; 13.0 m/s)
gusting to 46 MPH (40 knots; 20.8 m/s)
Visibility: 6 or more miles (10+ km)
Clouds: scattered clouds at 3500 feet AGL
Weather: no significant weather forecast for this period
Text: TEMPO 1806/1808 27030G50KT
Forecast period: 0600 to 0800 UTC 18 January 2018
Forecast type: TEMPORARY: The following changes expected for less than half the time period
Winds: from the W (270 degrees) at 34 MPH (30 knots; 15.6 m/s)
gusting to 57 MPH (50 knots; 26.0 m/s)
Weather: no significant weather forecast for this period
Text: BECMG 1808/1811 27015G25KT
Forecast period: 0800 to 1600 UTC 18 January 2018
Forecast type: BECOMING: Conditions expected to become as follows by 1100 UTC 18 January 2018
Winds: from the W (270 degrees) at 17 MPH (15 knots; 7.8 m/s)
gusting to 29 MPH (25 knots; 13.0 m/s)
Visibility: 6 or more miles (10+ km)
Clouds: scattered clouds at 3500 feet AGL
Weather: no significant weather forecast for this period
Text: PROB30
Forecast period: 1200 to 1800 UTC 18 January 2018
Forecast type: TEMPORARY: The following changes expected for less than half the time period
Visibility: 4 miles (6 km)
Weather: SHRA  (rain showers)
Text: TEMPO 1812/1818 6000 SHRA
Forecast period: 1600 UTC 18 January 2018 to 1200 UTC 19 January 2018
Forecast type: BECOMING: Conditions expected to become as follows by 1900 UTC 18 January 2018
Winds: from the W (270 degrees) at 14 MPH (12 knots; 6.2 m/s)
Visibility: 6 or more miles (10+ km)
Clouds: scattered clouds at 3500 feet AGL
Weather: no significant weather forecast for this period

METAR text: ZBAA 180530Z 19003MPS 150V220 CAVOK 04/M15 Q1024 NOSIG
Conditions at: ZBAA (BEIJING/PEKING , CN) observed 0530 UTC 18 January 2018
Temperature: 4.0°C (39°F)
Dewpoint: -15.0°C (5°F) [RH = 23%]
Pressure (altimeter): 30.24 inches Hg (1024.0 mb)
Winds: from the S (190 degrees) at 7 MPH (6 knots; 3.1 m/s)
Visibility: 6 or more miles (10+ km)
Ceiling: ceiling and visibility are OK
Clouds: unknown
Weather: no significant weather observed at this time

Forecast for: ZBAA (BEIJING/PEKING , CN)
Text: TAF ZBAA 180330Z 1806/1906 18004MPS 6000 NSC TX02/1807Z TNM07/21Z
Forecast period: 0600 UTC 18 January 2018 to 0600 UTC 19 January 2018
Forecast type: FROM: standard forecast or significant change
Winds: from the S (180 degrees) at 9 MPH (8 knots; 4.2 m/s)
Visibility: 4 miles (6 km)
Clouds: not forecast
Temperature: minimum -7.0°C (19°F) expected at 2100 UTC
Weather: no significant weather forecast for this period

METAR text: ZUUU 180500Z VRB01MPS 2500 HZ FEW050 11/05 Q1018 BECMG TL0600 3000
Conditions at: ZUUU (CHENGDU , CN) observed 0500 UTC 18 January 2018
Temperature: 11.0°C (52°F)
Dewpoint: 5.0°C (41°F) [RH = 66%]
Pressure (altimeter): 30.06 inches Hg (1018.0 mb)
Winds: variable direction winds at 2 MPH (2 knots; 1.0 m/s)
Visibility: 1.55 miles (2.49 km)
Ceiling: at least 12,000 feet AGL
Clouds: few clouds at 5000 feet AGL
Weather: HZ  (haze)

Forecast for: ZUUU (CHENGDU , CN)
Text: TAF ZUUU 180219Z 1806/1906 20003MPS 5000 BR SCT050 TX12/1807Z TN05/1822Z
Forecast period: 0600 to 2100 UTC 18 January 2018
Forecast type: FROM: standard forecast or significant change
Winds: from the SSW (200 degrees) at 7 MPH (6 knots; 3.1 m/s)
Visibility: 3 miles (5 km)
Clouds: scattered clouds at 5000 feet AGL
Weather: BR  (mist)
Text: BECMG 1821/1822 2300
Forecast period: 2100 UTC 18 January 2018 to 0200 UTC 19 January 2018
Forecast type: BECOMING: Conditions expected to become as follows by 2200 UTC 18 January 2018
Winds: from the SSW (200 degrees) at 7 MPH (6 knots; 3.1 m/s)
Visibility: 1.43 miles (2.30 km)
Clouds: scattered clouds at 5000 feet AGL
Weather: BR  (mist)
Text: BECMG 1902/1903 3000
Forecast period: 0200 to 0600 UTC 19 January 2018
Forecast type: BECOMING: Conditions expected to become as follows by 0300 UTC 19 January 2018
Winds: from the SSW (200 degrees) at 7 MPH (6 knots; 3.1 m/s)
Visibility: 1.86 miles (2.99 km)
Clouds: scattered clouds at 5000 feet AGL
Weather: BR  (mist)

METAR text: ZLXY 180500Z 08002MPS 030V120 8000 NSC 05/M08 Q1025 NOSIG
Conditions at: ZLXY (XIANYANG , CN) observed 0500 UTC 18 January 2018
Temperature: 5.0°C (41°F)
Dewpoint: -8.0°C (18°F) [RH = 38%]
Pressure (altimeter): 30.27 inches Hg (1025.0 mb)
Winds: from the E (80 degrees) at 5 MPH (4 knots; 2.1 m/s)
Visibility: 5 miles (8 km)
Ceiling: at least 12,000 feet AGL
Clouds: sky clear below 12,000 feet AGL
Weather: no significant weather observed at this time

Forecast for: ZLXY (XIANYANG , CN)
Text: TAF ZLXY 180301Z 1806/1906 06003MPS 3000 HZ NSC TX05/1807Z TNM05/23Z
Forecast period: 0600 UTC 18 January 2018 to 0600 UTC 19 January 2018
Forecast type: FROM: standard forecast or significant change
Winds: from the ENE (60 degrees) at 7 MPH (6 knots; 3.1 m/s)
Visibility: 1.86 miles (2.99 km)
Clouds: not forecast
Temperature: minimum -5.0°C (23°F) expected at 2300 UTC
Weather: HZ  (haze)

METAR text: ZSPD 180530Z 04006MPS 010V070 7000 OVC023 08/05 Q1024 NOSIG
Conditions at: ZSPD (SHANGHAI/PUDONG , CN) observed 0530 UTC 18 January 2018
Temperature: 8.0°C (46°F)
Dewpoint: 5.0°C (41°F) [RH = 81%]
Pressure (altimeter): 30.24 inches Hg (1024.0 mb)
Winds: from the NE (40 degrees) at 14 MPH (12 knots; 6.2 m/s)
Visibility: 4 miles (7 km)
Ceiling: 2300 feet AGL
Clouds: overcast cloud deck at 2300 feet AGL
Weather: no significant weather observed at this time

Forecast for: ZSPD (SHANGHAI/PUDONG , CN)
Text: TAF ZSPD 180318Z 1806/1906 04004MPS 3500 BR BKN013 TX11/1806Z TN07/1822Z
Forecast period: 0600 UTC 18 January 2018 to 0600 UTC 19 January 2018
Forecast type: FROM: standard forecast or significant change
Winds: from the NE (40 degrees) at 9 MPH (8 knots; 4.2 m/s)
Visibility: 2.17 miles (3.49 km)
Ceiling: 1300 feet AGL
Clouds: broken clouds at 1300 feet AGL
Weather: BR  (mist)

METAR text: ZSSS 180530Z 36005MPS 330V030 7000 BKN023 11/04 Q1023 NOSIG
Conditions at: ZSSS (SHANGHAI/HONGQIA, CN) observed 0530 UTC 18 January 2018
Temperature: 11.0°C (52°F)
Dewpoint: 4.0°C (39°F) [RH = 62%]
Pressure (altimeter): 30.21 inches Hg (1023.0 mb)
Winds: from the N (360 degrees) at 12 MPH (10 knots; 5.2 m/s)
Visibility: 4 miles (7 km)
Ceiling: 2300 feet AGL
Clouds: broken clouds at 2300 feet AGL
Weather: no significant weather observed at this time

Forecast for: ZSSS (SHANGHAI/HONGQIA, CN)
Text: TAF ZSSS 180311Z 1806/1906 04004MPS 3500 BR BKN020 TX11/1806Z TN06/1821Z
Forecast period: 0600 UTC 18 January 2018 to 0600 UTC 19 January 2018
Forecast type: FROM: standard forecast or significant change
Winds: from the NE (40 degrees) at 9 MPH (8 knots; 4.2 m/s)
Visibility: 2.17 miles (3.49 km)
Ceiling: 2000 feet AGL
Clouds: broken clouds at 2000 feet AGL
Weather: BR  (mist)
Text: TEMPO 1820/1824 1200
Forecast period: 2000 UTC 18 January 2018 to 0000 UTC 19 January 2018
Forecast type: TEMPORARY: The following changes expected for less than half the time period
Visibility: 0.75 miles (1.21 km)
Weather: no significant weather forecast for this period

METAR text: VHHH 180530Z 27007KT 8000 NSC 22/14 Q1016 NOSIG
Conditions at: VHHH (HONG KONG INTL , HK) observed 0530 UTC 18 January 2018
Temperature: 22.0°C (72°F)
Dewpoint: 14.0°C (57°F) [RH = 60%]
Pressure (altimeter): 30.00 inches Hg (1016.0 mb)
Winds: from the W (270 degrees) at 8 MPH (7 knots; 3.6 m/s)
Visibility: 5 miles (8 km)
Ceiling: at least 12,000 feet AGL
Clouds: sky clear below 12,000 feet AGL
Weather: no significant weather observed at this time

Forecast for: VHHH (HONG KONG INTL , HK)
Text: TAF VHHH 180500Z 1806/1912 28010KT 7000 FEW040 TX23/1806Z TX21/1906Z TN19/1823Z
Forecast period: 0600 to 0900 UTC 18 January 2018
Forecast type: FROM: standard forecast or significant change
Winds: from the W (280 degrees) at 12 MPH (10 knots; 5.2 m/s)
Visibility: 4 miles (7 km)
Clouds: few clouds at 4000 feet AGL
Weather: no significant weather forecast for this period
Text: TEMPO 1806/1810 4000 HZ
Forecast period: 0600 to 1000 UTC 18 January 2018
Forecast type: TEMPORARY: The following changes expected for less than half the time period
Visibility: 2.49 miles (4.01 km)
Weather: HZ  (haze)
Text: BECMG 1809/1811 10010KT
Forecast period: 0900 UTC 18 January 2018 to 1200 UTC 19 January 2018
Forecast type: BECOMING: Conditions expected to become as follows by 1100 UTC 18 January 2018
Winds: from the E (100 degrees) at 12 MPH (10 knots; 5.2 m/s)
Visibility: 4 miles (7 km)
Clouds: few clouds at 4000 feet AGL
Weather: no significant weather forecast for this period
Text: TEMPO 1815/1821 4000 BR -RA
Forecast period: 1500 to 2100 UTC 18 January 2018
Forecast type: TEMPORARY: The following changes expected for less than half the time period
Visibility: 2.49 miles (4.01 km)
Weather: BR -RA  (mist, light rain)
Text: TEMPO 1903/1910 30010KT
Forecast period: 0300 to 1000 UTC 19 January 2018
Forecast type: TEMPORARY: The following changes expected for less than half the time period
Winds: from the WNW (300 degrees) at 12 MPH (10 knots; 5.2 m/s)
Weather: no significant weather forecast for this period